Time;durP1;ratioP1;P1;durP2;ratioP2;P2;SDS_P1;SDS_P2;PMS_P1;PMS_P2;Temp;Humidity;BMP_temperature;BMP_pressure;BME280_temperature;BME280_humidity;BME280_pressure;Samples;Min_cycle;Max_cycle;Signal;HPM_P1;HPM_P2
2023/04/25 00:01:12;;;;;;;11.40;2.15;;;16.80;96.70;;;;;;4960017;28;20157;-71
2023/04/25 00:03:41;;;;;;;10.50;2.85;;;16.80;96.70;;;;;;4958534;28;20484;-70
2023/04/25 00:06:09;;;;;;;9.90;2.47;;;16.80;96.70;;;;;;4962300;28;20492;-70
2023/04/25 00:08:39;;;;;;;9.75;2.45;;;16.70;96.70;;;;;;4939895;28;20055;-71
2023/04/25 00:11:08;;;;;;;11.98;2.40;;;16.50;96.70;;;;;;4943807;28;20047;-71
2023/04/25 00:13:36;;;;;;;10.68;2.67;;;16.50;96.70;;;;;;4944799;28;20417;-71
2023/04/25 00:16:06;;;;;;;12.75;2.70;;;16.50;96.70;;;;;;4944891;28;20047;-71
2023/04/25 00:18:34;;;;;;;9.32;2.38;;;16.50;96.70;;;;;;4942980;28;20055;-70
2023/04/25 00:21:02;;;;;;;10.48;2.35;;;16.50;96.70;;;;;;4943637;28;20476;-71
2023/04/25 00:23:30;;;;;;;13.73;3.08;;;16.60;96.70;;;;;;4942764;28;20047;-71
2023/04/25 00:26:00;;;;;;;8.85;2.50;;;16.50;96.70;;;;;;4928000;28;20416;-71
2023/04/25 00:28:28;;;;;;;10.10;2.28;;;16.50;96.70;;;;;;4944688;28;20053;-71
2023/04/25 00:30:56;;;;;;;8.77;2.15;;;16.40;96.70;;;;;;4943609;28;20157;-71
2023/04/25 00:33:25;;;;;;;13.23;2.63;;;16.40;96.70;;;;;;4927830;29;20097;-71
2023/04/25 00:35:53;;;;;;;9.02;1.90;;;16.20;96.70;;;;;;4943401;28;20513;-71
2023/04/25 00:38:23;;;;;;;9.05;2.28;;;16.20;96.70;;;;;;4942779;28;20059;-71
2023/04/25 00:40:52;;;;;;;13.63;2.70;;;16.30;96.70;;;;;;4944043;28;20136;-70
2023/04/25 00:43:22;;;;;;;10.63;2.30;;;16.30;96.70;;;;;;4943218;28;20142;-71
2023/04/25 00:45:52;;;;;;;8.52;1.98;;;16.20;96.70;;;;;;4927646;29;20070;-70
2023/04/25 00:48:22;;;;;;;9.88;2.55;;;16.20;96.70;;;;;;4943185;28;20048;-71
2023/04/25 00:50:53;;;;;;;9.82;2.55;;;16.30;96.70;;;;;;4947767;28;20069;-71
2023/04/25 00:53:23;;;;;;;11.38;2.78;;;16.40;96.70;;;;;;4944386;28;20075;-71
2023/04/25 00:55:52;;;;;;;13.80;2.47;;;16.30;96.70;;;;;;4941602;28;20429;-71
2023/04/25 00:58:22;;;;;;;14.88;3.05;;;16.30;96.70;;;;;;4944590;28;20050;-71
2023/04/25 01:00:52;;;;;;;12.82;2.30;;;16.20;96.70;;;;;;4943463;28;20059;-70
2023/04/25 01:03:20;;;;;;;9.68;2.38;;;16.20;96.70;;;;;;4942784;28;20668;-71
2023/04/25 01:05:49;;;;;;;10.35;2.20;;;16.30;96.70;;;;;;4942523;28;20509;-71
2023/04/25 01:08:17;;;;;;;9.57;2.85;;;16.30;96.70;;;;;;4959425;28;20054;-71
2023/04/25 01:10:45;;;;;;;9.35;2.63;;;16.30;96.70;;;;;;4946236;28;20742;-71
2023/04/25 01:13:13;;;;;;;9.65;2.42;;;16.30;96.70;;;;;;4963869;28;20039;-71
2023/04/25 01:15:43;;;;;;;10.68;2.70;;;16.30;96.70;;;;;;4962097;28;20318;-71
2023/04/25 01:18:12;;;;;;;8.40;2.00;;;16.30;96.70;;;;;;4962180;28;20061;-71
2023/04/25 01:20:42;;;;;;;8.23;2.33;;;16.40;96.70;;;;;;4975333;28;20035;-71
2023/04/25 01:23:13;;;;;;;9.55;2.28;;;16.40;96.70;;;;;;4964198;28;20071;-71
2023/04/25 01:25:41;;;;;;;11.15;2.25;;;16.30;96.70;;;;;;4962205;28;20117;-71
2023/04/25 01:28:10;;;;;;;11.45;2.92;;;16.00;96.70;;;;;;4963529;28;20045;-71
2023/04/25 01:30:39;;;;;;;9.32;2.65;;;16.00;96.70;;;;;;4961919;28;20050;-71
2023/04/25 01:33:09;;;;;;;6.53;1.90;;;16.10;96.70;;;;;;4945148;28;20062;-71
2023/04/25 01:35:37;;;;;;;15.30;2.83;;;16.20;96.70;;;;;;4963328;28;20047;-71
2023/04/25 01:38:06;;;;;;;8.57;2.10;;;16.30;96.70;;;;;;4961305;28;20066;-71
2023/04/25 01:40:40;;;;;;;12.02;2.25;;;16.30;96.70;;;;;;4963543;28;20501;-70
2023/04/25 01:43:11;;;;;;;12.15;2.67;;;16.20;96.70;;;;;;4961891;28;20155;-71
2023/04/25 01:45:40;;;;;;;8.15;2.20;;;16.20;96.70;;;;;;4963130;28;20054;-71
2023/04/25 01:48:12;;;;;;;12.48;2.80;;;16.20;96.70;;;;;;4946093;28;20125;-71
2023/04/25 01:50:42;;;;;;;11.73;2.60;;;16.20;96.70;;;;;;4962130;28;20141;-71
2023/04/25 01:53:12;;;;;;;9.95;2.40;;;16.20;96.70;;;;;;4961351;28;20062;-71
2023/04/25 01:55:44;;;;;;;7.63;2.30;;;16.10;96.70;;;;;;4961725;28;20047;-70
2023/04/25 01:58:15;;;;;;;11.05;2.35;;;16.00;96.70;;;;;;4961555;28;20082;-71
2023/04/25 02:01:02;;;;;;;10.00;2.17;;;15.90;96.70;;;;;;4958306;28;20048;-71
2023/04/25 02:03:38;;;;;;;13.20;2.63;;;16.00;96.70;;;;;;4946513;28;20042;-71
2023/04/25 02:06:11;;;;;;;8.88;2.22;;;15.90;96.70;;;;;;4961706;28;20190;-70
2023/04/25 02:08:43;;;;;;;14.55;2.53;;;15.90;96.70;;;;;;4961400;28;20070;-71
2023/04/25 02:11:14;;;;;;;8.55;2.58;;;15.90;96.70;;;;;;4962200;28;20054;-71
2023/04/25 02:13:48;;;;;;;8.95;2.33;;;16.00;96.70;;;;;;4961812;28;20770;-71
2023/04/25 02:16:44;;;;;;;14.30;2.72;;;16.10;96.70;;;;;;4949060;28;20476;-71
2023/04/25 02:19:13;;;;;;;8.57;2.72;;;16.10;96.70;;;;;;4963854;28;20093;-71
2023/04/25 02:21:41;;;;;;;9.15;2.03;;;16.00;96.70;;;;;;4965571;28;20050;-71
2023/04/25 02:24:11;;;;;;;11.25;2.17;;;16.00;96.70;;;;;;4964221;28;20101;-71
2023/04/25 02:26:40;;;;;;;11.73;2.38;;;16.10;96.70;;;;;;4965012;28;20059;-71
2023/04/25 02:29:09;;;;;;;10.82;2.80;;;16.10;96.70;;;;;;4948997;28;20938;-71
2023/04/25 02:31:37;;;;;;;8.70;2.53;;;16.10;96.70;;;;;;4966539;28;20571;-71
2023/04/25 02:34:05;;;;;;;9.65;2.15;;;16.00;96.70;;;;;;4964994;28;20154;-71
2023/04/25 02:36:36;;;;;;;7.40;1.83;;;16.00;96.70;;;;;;4964210;28;20053;-71
2023/04/25 02:39:04;;;;;;;9.05;2.00;;;16.00;96.70;;;;;;4964187;28;20054;-70
2023/04/25 02:41:33;;;;;;;8.77;1.98;;;16.00;96.70;;;;;;4964796;28;20477;-71
2023/04/25 02:44:02;;;;;;;10.93;2.88;;;15.90;96.70;;;;;;4967776;28;20074;-71
2023/04/25 02:46:30;;;;;;;10.32;3.22;;;15.90;96.70;;;;;;4979546;28;20054;-71
2023/04/25 02:49:06;;;;;;;8.95;1.90;;;15.90;96.70;;;;;;4965928;28;20477;-71
2023/04/25 02:51:35;;;;;;;8.63;2.17;;;15.90;96.70;;;;;;4964455;28;20074;-71
2023/04/25 02:54:03;;;;;;;7.65;2.17;;;15.90;96.70;;;;;;4967735;28;20050;-71
2023/04/25 02:56:35;;;;;;;6.32;1.95;;;16.00;96.70;;;;;;4964305;28;20378;-71
2023/04/25 02:59:09;;;;;;;9.50;2.30;;;16.00;96.70;;;;;;4947676;28;20054;-71
2023/04/25 03:01:37;;;;;;;10.40;2.35;;;16.00;96.70;;;;;;4965716;28;20050;-71
2023/04/25 03:04:05;;;;;;;9.30;1.85;;;16.00;96.70;;;;;;4964064;28;20488;-70
2023/04/25 03:06:33;;;;;;;9.48;1.75;;;15.90;96.70;;;;;;4948241;28;20583;-71
2023/04/25 03:09:01;;;;;;;7.43;2.17;;;15.90;96.70;;;;;;4964012;28;20050;-70
2023/04/25 03:11:30;;;;;;;9.85;1.80;;;15.90;96.70;;;;;;4961000;28;20043;-71
2023/04/25 03:13:58;;;;;;;6.90;1.70;;;15.90;96.70;;;;;;4963264;28;20067;-70
2023/04/25 03:16:28;;;;;;;6.38;1.73;;;15.90;96.70;;;;;;4964017;28;20050;-71
2023/04/25 03:18:56;;;;;;;7.78;1.70;;;15.80;96.70;;;;;;4963744;28;20085;-70
2023/04/25 03:21:25;;;;;;;6.35;1.42;;;15.80;96.70;;;;;;4963942;28;20093;-70
2023/04/25 03:23:53;;;;;;;6.88;1.55;;;15.80;96.70;;;;;;4947524;28;20482;-71
2023/04/25 03:26:21;;;;;;;9.02;2.55;;;15.80;96.70;;;;;;4964825;28;20982;-71
2023/04/25 03:28:50;;;;;;;12.73;2.83;;;15.70;96.70;;;;;;4944557;28;20080;-71
2023/04/25 03:31:18;;;;;;;7.63;2.00;;;15.70;96.70;;;;;;4939263;28;20050;-70
2023/04/25 03:33:48;;;;;;;10.80;2.50;;;15.80;96.70;;;;;;4963544;28;20505;-71
2023/04/25 03:36:19;;;;;;;10.57;2.60;;;15.80;96.70;;;;;;4964126;28;20063;-71
2023/04/25 03:38:48;;;;;;;8.98;2.38;;;15.90;96.70;;;;;;4962867;28;20595;-70
2023/04/25 03:41:17;;;;;;;10.15;2.58;;;15.90;96.70;;;;;;4962307;28;20042;-71
2023/04/25 03:43:49;;;;;;;11.40;2.42;;;15.90;96.70;;;;;;4940756;28;20058;-70
2023/04/25 03:46:17;;;;;;;10.45;2.75;;;15.90;96.70;;;;;;4948186;28;20125;-71
2023/04/25 03:48:48;;;;;;;10.27;2.53;;;15.70;96.70;;;;;;4963654;28;20043;-71
2023/04/25 03:51:21;;;;;;;8.60;2.28;;;15.60;96.70;;;;;;4963473;28;20057;-71
2023/04/25 03:53:50;;;;;;;7.53;2.13;;;15.40;96.70;;;;;;4965698;28;20052;-70
2023/04/25 03:56:36;;;;;;;12.10;2.00;;;15.40;96.70;;;;;;4963902;28;20047;-71
2023/04/25 03:59:15;;;;;;;6.63;1.80;;;15.40;96.70;;;;;;4963658;28;20665;-71
2023/04/25 04:01:45;;;;;;;8.57;2.47;;;15.50;96.70;;;;;;4944730;28;20142;-71
2023/04/25 04:04:21;;;;;;;12.40;2.25;;;15.50;96.70;;;;;;4965119;28;20045;-71
2023/04/25 04:06:50;;;;;;;6.97;1.48;;;15.60;96.70;;;;;;4963115;28;20059;-70
2023/04/25 04:09:24;;;;;;;8.75;2.00;;;15.70;96.70;;;;;;4960167;28;20708;-70
2023/04/25 04:11:54;;;;;;;8.00;1.50;;;15.60;96.70;;;;;;4962641;28;20063;-71
2023/04/25 04:14:22;;;;;;;11.63;2.30;;;15.70;96.70;;;;;;4955095;28;20054;-70
2023/04/25 04:16:52;;;;;;;10.68;2.20;;;15.70;96.70;;;;;;4962949;28;20154;-71
2023/04/25 04:19:23;;;;;;;8.00;1.80;;;15.60;96.70;;;;;;4963085;28;20525;-70
2023/04/25 04:22:04;;;;;;;7.50;1.85;;;15.70;96.70;;;;;;4959632;28;20126;-71
2023/04/25 04:24:32;;;;;;;9.20;2.05;;;15.70;96.70;;;;;;4978384;28;20086;-70
2023/04/25 04:27:05;;;;;;;10.45;1.88;;;15.70;96.70;;;;;;4962736;28;20053;-71
2023/04/25 04:29:40;;;;;;;5.05;1.65;;;15.70;96.70;;;;;;4962856;28;20517;-70
2023/04/25 04:32:15;;;;;;;7.53;1.80;;;15.70;96.70;;;;;;4964006;28;20049;-70
2023/04/25 04:34:47;;;;;;;7.72;1.85;;;15.50;96.70;;;;;;4963137;28;20057;-70
2023/04/25 04:37:17;;;;;;;8.90;1.70;;;15.60;96.70;;;;;;4962049;28;20055;-71
2023/04/25 04:39:46;;;;;;;7.68;1.88;;;15.70;96.70;;;;;;4962243;28;20058;-71
2023/04/25 04:42:24;;;;;;;9.90;2.03;;;15.70;96.70;;;;;;4947101;28;20670;-70
2023/04/25 04:45:02;;;;;;;8.93;2.55;;;15.70;96.70;;;;;;4962665;28;20412;-71
2023/04/25 04:47:45;;;;;;;6.93;1.90;;;15.70;96.70;;;;;;4964513;28;20039;-71
2023/04/25 04:50:19;;;;;;;9.32;2.00;;;15.70;96.70;;;;;;4963884;28;20489;-69
2023/04/25 04:53:19;;;;;;;8.30;2.25;;;15.70;96.70;;;;;;4946353;28;20066;-70
2023/04/25 04:55:54;;;;;;;7.40;1.77;;;15.70;96.70;;;;;;4944343;28;20055;-70
2023/04/25 04:58:41;;;;;;;7.53;2.05;;;15.70;96.70;;;;;;4941878;28;20097;-69
2023/04/25 05:01:29;;;;;;;9.90;1.73;;;15.40;96.70;;;;;;4941887;28;20629;-70
2023/04/25 05:04:11;;;;;;;9.60;2.05;;;15.60;96.70;;;;;;4941078;28;20648;-70
2023/04/25 05:07:07;;;;;;;7.25;1.83;;;15.70;96.70;;;;;;4939085;28;20565;-70
2023/04/25 05:09:47;;;;;;;11.48;3.20;;;15.70;96.70;;;;;;4940903;28;20568;-70
2023/04/25 05:12:36;;;;;;;13.18;3.38;;;15.70;96.70;;;;;;4941453;28;20071;-70
2023/04/25 05:15:27;;;;;;;6.95;2.97;;;15.70;96.70;;;;;;4922577;28;20208;-70
2023/04/25 05:18:14;;;;;;;10.40;3.40;;;15.70;96.70;;;;;;4941070;28;20048;-70
2023/04/25 05:20:58;;;;;;;10.98;3.30;;;15.70;96.70;;;;;;4945064;28;20061;-71
2023/04/25 05:23:47;;;;;;;13.02;3.13;;;15.70;96.70;;;;;;4941054;28;20058;-70
2023/04/25 05:27:00;;;;;;;10.60;3.22;;;15.70;96.70;;;;;;4939431;28;20173;-71
2023/04/25 05:29:48;;;;;;;10.65;2.70;;;15.70;96.70;;;;;;4936037;28;20141;-70
2023/04/25 05:32:30;;;;;;;10.15;2.65;;;15.80;96.70;;;;;;4959928;28;20043;-70
2023/04/25 05:34:59;;;;;;;10.40;2.92;;;15.70;96.70;;;;;;4962099;28;20133;-70
2023/04/25 05:37:33;;;;;;;9.15;2.40;;;15.80;96.70;;;;;;4961271;28;20051;-71
2023/04/25 05:40:15;;;;;;;10.25;3.17;;;15.90;96.70;;;;;;4962053;28;20156;-72
2023/04/25 05:43:21;;;;;;;11.00;3.20;;;15.90;96.70;;;;;;4995171;28;20050;-70
2023/04/25 05:45:59;;;;;;;16.88;3.35;;;15.90;96.70;;;;;;4998093;28;20056;-70
2023/04/25 05:48:28;;;;;;;9.75;2.85;;;15.80;96.70;;;;;;4979192;28;20062;-69
2023/04/25 05:51:16;;;;;;;9.30;3.13;;;15.70;96.70;;;;;;4962373;28;20062;-70
2023/04/25 05:53:58;;;;;;;8.90;3.10;;;15.70;96.70;;;;;;4967854;28;20046;-70
2023/04/25 05:56:28;;;;;;;13.13;3.40;;;15.90;96.70;;;;;;4966892;28;20056;-69
2023/04/25 05:58:57;;;;;;;9.45;2.95;;;15.90;96.70;;;;;;4967360;28;20079;-69
2023/04/25 06:01:26;;;;;;;11.90;3.55;;;15.80;96.70;;;;;;4965716;28;20050;-70
2023/04/25 06:03:54;;;;;;;11.80;3.53;;;15.80;96.70;;;;;;4965575;28;20141;-70
2023/04/25 06:06:23;;;;;;;8.75;3.08;;;15.90;96.70;;;;;;4964745;28;20059;-70
2023/04/25 06:08:58;;;;;;;12.32;3.47;;;15.90;96.70;;;;;;4966575;28;20425;-70
2023/04/25 06:11:28;;;;;;;9.65;3.38;;;16.00;96.70;;;;;;4965583;28;20089;-70
2023/04/25 06:13:56;;;;;;;11.20;3.10;;;16.00;96.70;;;;;;4965309;28;20046;-69
2023/04/25 06:16:25;;;;;;;9.38;3.22;;;15.90;96.70;;;;;;4965343;28;20571;-69
2023/04/25 06:18:54;;;;;;;10.15;3.83;;;15.90;96.70;;;;;;4964547;28;20097;-70
2023/04/25 06:21:22;;;;;;;8.63;3.20;;;16.10;96.70;;;;;;4973322;28;20051;-69
2023/04/25 06:23:51;;;;;;;11.50;3.67;;;16.20;96.70;;;;;;4964221;28;20050;-70
2023/04/25 06:26:23;;;;;;;11.23;3.75;;;16.30;96.70;;;;;;4965490;28;20509;-69
2023/04/25 06:28:54;;;;;;;10.23;3.40;;;16.40;96.70;;;;;;4961607;28;20050;-70
2023/04/25 06:31:23;;;;;;;12.73;3.40;;;16.40;96.70;;;;;;4980041;28;20548;-70
2023/04/25 06:33:54;;;;;;;13.40;3.75;;;16.40;96.70;;;;;;4964738;28;20153;-70
2023/04/25 06:36:25;;;;;;;17.70;4.13;;;16.40;96.70;;;;;;4964802;28;20046;-69
2023/04/25 06:39:00;;;;;;;15.73;4.05;;;16.40;96.70;;;;;;4964162;28;20116;-70
2023/04/25 06:41:29;;;;;;;20.73;4.80;;;16.40;96.70;;;;;;4965502;28;20046;-69
2023/04/25 06:44:03;;;;;;;21.77;4.85;;;16.40;96.70;;;;;;4979772;28;20054;-70
2023/04/25 06:46:50;;;;;;;18.77;4.07;;;16.50;96.70;;;;;;4964740;28;20061;-70
2023/04/25 06:49:19;;;;;;;19.15;4.10;;;16.50;96.70;;;;;;4966247;28;20046;-70
2023/04/25 06:51:49;;;;;;;16.27;3.88;;;16.50;96.70;;;;;;4948410;28;20767;-70
2023/04/25 06:54:17;;;;;;;14.20;3.40;;;16.60;96.70;;;;;;4962237;28;20124;-70
2023/04/25 06:56:56;;;;;;;22.33;5.03;;;16.60;96.70;;;;;;4964769;28;20038;-70
2023/04/25 06:59:28;;;;;;;20.70;4.15;;;16.60;96.70;;;;;;4949604;28;20058;-70
2023/04/25 07:01:56;;;;;;;16.17;3.72;;;16.60;96.70;;;;;;4965119;28;20034;-70
2023/04/25 07:04:28;;;;;;;18.52;4.38;;;16.60;96.70;;;;;;4955595;28;20114;-70
2023/04/25 07:07:00;;;;;;;21.05;4.30;;;16.60;96.70;;;;;;4965378;28;20051;-70
2023/04/25 07:09:39;;;;;;;20.65;4.03;;;16.60;96.70;;;;;;4949509;28;20046;-69
2023/04/25 07:12:19;;;;;;;16.38;5.00;;;16.60;96.70;;;;;;4965111;28;20094;-71
2023/04/25 07:14:51;;;;;;;21.52;4.00;;;16.60;96.70;;;;;;4948820;28;20054;-70
2023/04/25 07:17:19;;;;;;;20.42;4.68;;;16.50;96.70;;;;;;4964150;28;20125;-70
2023/04/25 07:19:48;;;;;;;15.80;4.00;;;16.60;96.70;;;;;;4964257;28;20047;-70
2023/04/25 07:22:17;;;;;;;18.67;4.20;;;16.60;96.70;;;;;;4963928;28;20416;-70
2023/04/25 07:24:48;;;;;;;22.70;4.50;;;16.60;96.70;;;;;;4965149;28;20436;-70
2023/04/25 07:27:20;;;;;;;15.20;4.65;;;16.60;96.70;;;;;;4966382;28;20401;-70
2023/04/25 07:30:07;;;;;;;16.90;4.07;;;16.60;96.70;;;;;;4963993;28;20074;-70
2023/04/25 07:32:36;;;;;;;16.27;3.75;;;16.60;96.70;;;;;;4960451;28;20047;-70
2023/04/25 07:35:06;;;;;;;17.70;3.80;;;16.60;96.70;;;;;;4940587;28;20047;-70
2023/04/25 07:37:35;;;;;;;19.30;3.80;;;16.60;96.70;;;;;;4963238;28;20045;-70
2023/04/25 07:40:11;;;;;;;17.70;4.15;;;16.60;96.70;;;;;;4965003;28;20124;-71
2023/04/25 07:42:46;;;;;;;17.45;4.40;;;16.60;96.70;;;;;;4963371;28;20055;-70
2023/04/25 07:45:20;;;;;;;16.20;3.67;;;16.70;96.70;;;;;;4956284;28;20051;-70
2023/04/25 07:47:49;;;;;;;24.63;3.88;;;16.70;96.70;;;;;;4963668;28;20074;-70
2023/04/25 07:50:18;;;;;;;13.77;3.72;;;16.70;96.70;;;;;;4963423;28;20291;-70
2023/04/25 07:52:50;;;;;;;14.07;4.03;;;16.80;96.70;;;;;;4959594;28;20074;-70
2023/04/25 07:55:36;;;;;;;21.70;4.72;;;16.90;96.70;;;;;;4970111;28;20065;-70
2023/04/25 07:58:13;;;;;;;13.20;3.53;;;17.00;96.70;;;;;;4963331;28;20134;-70
2023/04/25 08:00:46;;;;;;;22.40;4.57;;;17.00;96.70;;;;;;4963432;28;20349;-69
2023/04/25 08:03:45;;;;;;;17.45;3.90;;;17.20;96.70;;;;;;4958116;28;20053;-71
2023/04/25 08:06:22;;;;;;;17.80;4.15;;;17.20;96.70;;;;;;4963100;28;20058;-70
2023/04/25 08:09:12;;;;;;;13.10;3.17;;;17.20;96.70;;;;;;4962021;28;20504;-69
2023/04/25 08:11:43;;;;;;;18.25;4.07;;;17.30;96.70;;;;;;4964749;28;20046;-70
2023/04/25 08:14:14;;;;;;;13.20;3.55;;;17.40;96.70;;;;;;4963297;28;20051;-70
2023/04/25 08:16:45;;;;;;;19.88;4.32;;;17.40;96.70;;;;;;4962939;28;20133;-70
2023/04/25 08:19:13;;;;;;;21.02;4.43;;;17.40;96.70;;;;;;4963159;28;20543;-70
2023/04/25 08:21:41;;;;;;;13.50;3.88;;;17.50;96.70;;;;;;4946074;28;20038;-70
2023/04/25 08:24:14;;;;;;;21.20;4.38;;;17.60;96.70;;;;;;4962828;28;20086;-70
2023/04/25 08:26:43;;;;;;;12.65;3.53;;;17.70;96.70;;;;;;4963300;28;20043;-71
2023/04/25 08:29:15;;;;;;;18.60;3.65;;;17.90;96.70;;;;;;4964437;28;20756;-70
2023/04/25 08:31:45;;;;;;;26.65;4.90;;;17.90;96.70;;;;;;4962924;28;20452;-70
2023/04/25 08:34:15;;;;;;;13.57;3.63;;;17.80;96.70;;;;;;4946383;28;20147;-70
2023/04/25 08:36:48;;;;;;;15.15;3.25;;;17.80;96.70;;;;;;4962912;28;20051;-71
2023/04/25 08:39:36;;;;;;;16.75;3.25;;;17.80;96.70;;;;;;4962811;28;20065;-70
2023/04/25 08:42:26;;;;;;;19.95;4.13;;;17.90;96.70;;;;;;4956789;28;20054;-70
2023/04/25 08:44:55;;;;;;;15.63;3.78;;;17.90;96.70;;;;;;4962574;28;20062;-70
2023/04/25 08:47:31;;;;;;;21.20;4.55;;;17.90;96.70;;;;;;4955292;28;20482;-70
2023/04/25 08:50:01;;;;;;;20.73;4.75;;;17.80;96.70;;;;;;4961039;28;20101;-70
2023/04/25 08:52:39;;;;;;;18.88;5.35;;;17.60;96.70;;;;;;4962384;28;20331;-69
2023/04/25 08:55:11;;;;;;;20.05;5.18;;;17.60;96.70;;;;;;4965173;28;20046;-70
2023/04/25 08:57:42;;;;;;;18.80;4.80;;;17.60;96.70;;;;;;4962443;28;20046;-70
2023/04/25 09:00:12;;;;;;;15.82;3.92;;;17.60;96.70;;;;;;4964799;28;20049;-70
2023/04/25 09:02:44;;;;;;;17.33;3.72;;;17.70;96.70;;;;;;4956651;28;20077;-70
2023/04/25 09:05:14;;;;;;;18.83;4.10;;;17.60;96.70;;;;;;4962376;28;20101;-70
2023/04/25 09:07:42;;;;;;;16.05;4.35;;;17.70;96.70;;;;;;4946029;28;20051;-70
2023/04/25 09:10:11;;;;;;;17.85;3.50;;;17.80;96.70;;;;;;4970321;28;20062;-70
2023/04/25 09:13:05;;;;;;;12.27;3.55;;;18.00;96.70;;;;;;4962370;28;20047;-71
2023/04/25 09:15:48;;;;;;;23.27;3.75;;;17.70;96.70;;;;;;4944121;28;20528;-70
2023/04/25 09:18:34;;;;;;;14.27;3.95;;;17.70;96.70;;;;;;4962576;28;20051;-70
2023/04/25 09:21:06;;;;;;;15.00;3.53;;;17.80;96.70;;;;;;4962466;28;20129;-70
2023/04/25 09:23:44;;;;;;;19.85;4.25;;;17.90;96.70;;;;;;4961117;28;20043;-70
2023/04/25 09:26:32;;;;;;;22.23;4.57;;;18.10;96.70;;;;;;4946880;28;20046;-70
2023/04/25 09:29:06;;;;;;;14.90;3.65;;;18.20;96.70;;;;;;4964111;28;20088;-70
2023/04/25 09:31:37;;;;;;;15.48;3.47;;;18.30;96.70;;;;;;4966019;28;20053;-71
2023/04/25 09:34:15;;;;;;;18.15;3.40;;;18.30;96.70;;;;;;4966447;28;20410;-70
2023/04/25 09:36:50;;;;;;;15.15;2.95;;;18.30;96.70;;;;;;4964533;28;20085;-70
2023/04/25 09:39:40;;;;;;;17.42;3.65;;;18.40;96.70;;;;;;4967181;28;20424;-70
2023/04/25 09:42:31;;;;;;;15.07;3.75;;;18.40;96.70;;;;;;4966473;28;20043;-70
2023/04/25 09:45:01;;;;;;;15.55;3.40;;;18.40;96.70;;;;;;4965636;28;20047;-70
2023/04/25 09:47:38;;;;;;;12.32;3.30;;;18.50;96.70;;;;;;4966096;28;20042;-70
2023/04/25 09:50:16;;;;;;;16.50;3.33;;;18.50;96.70;;;;;;4965111;28;20047;-70
2023/04/25 09:53:03;;;;;;;11.55;2.67;;;18.60;96.70;;;;;;4951398;28;20050;-70
2023/04/25 09:55:48;;;;;;;18.08;3.58;;;18.60;96.70;;;;;;4972557;28;20054;-70
2023/04/25 09:58:16;;;;;;;14.65;3.72;;;18.80;96.70;;;;;;4968168;28;20046;-70
2023/04/25 10:00:45;;;;;;;10.40;2.70;;;18.80;96.70;;;;;;4967252;28;20086;-70
2023/04/25 10:03:30;;;;;;;15.90;3.20;;;18.70;96.70;;;;;;4962217;28;20078;-70
2023/04/25 10:06:24;;;;;;;15.38;3.00;;;19.00;96.70;;;;;;4964933;28;20066;-70
2023/04/25 10:08:55;;;;;;;14.85;3.33;;;19.00;96.70;;;;;;4965316;28;20053;-70
2023/04/25 10:11:26;;;;;;;11.25;3.10;;;19.00;96.70;;;;;;4965812;28;20449;-71
2023/04/25 10:13:54;;;;;;;15.25;4.45;;;19.20;96.70;;;;;;4965197;28;20050;-70
2023/04/25 10:16:22;;;;;;;13.48;4.43;;;19.30;96.70;;;;;;4965050;28;20146;-70
2023/04/25 10:18:51;;;;;;;14.93;3.70;;;19.20;96.70;;;;;;4949333;28;20644;-70
2023/04/25 10:21:22;;;;;;;16.02;4.15;;;19.20;96.70;;;;;;4965198;28;20498;-70
2023/04/25 10:23:51;;;;;;;13.15;3.13;;;19.40;96.70;;;;;;4964536;28;20055;-70
2023/04/25 10:26:20;;;;;;;14.63;3.58;;;19.30;96.70;;;;;;4965478;28;20101;-70
2023/04/25 10:28:58;;;;;;;12.70;3.88;;;19.30;96.70;;;;;;4964511;28;20055;-71
2023/04/25 10:31:26;;;;;;;10.77;2.42;;;19.30;96.70;;;;;;4966595;28;20050;-71
2023/04/25 10:34:35;;;;;;;10.43;2.65;;;19.30;96.70;;;;;;4966391;28;20401;-71
2023/04/25 10:37:04;;;;;;;12.50;2.60;;;19.30;96.70;;;;;;4964997;28;20054;-70
2023/04/25 10:39:34;;;;;;;10.98;2.63;;;19.40;96.70;;;;;;4964178;28;20051;-71
2023/04/25 10:42:03;;;;;;;11.63;2.50;;;19.50;96.70;;;;;;4966070;28;20046;-70
2023/04/25 10:44:32;;;;;;;13.13;2.47;;;19.70;96.70;;;;;;4977023;28;20047;-70
2023/04/25 10:47:02;;;;;;;8.02;1.80;;;19.80;96.70;;;;;;4961958;28;20072;-70
2023/04/25 10:49:33;;;;;;;9.43;2.60;;;19.90;96.70;;;;;;4969802;28;21097;-70
2023/04/25 10:52:17;;;;;;;7.57;2.20;;;19.90;96.70;;;;;;4965117;28;20121;-70
2023/04/25 10:54:51;;;;;;;10.98;2.70;;;19.90;96.70;;;;;;4967736;28;20146;-70
2023/04/25 10:57:30;;;;;;;9.20;2.35;;;20.20;96.70;;;;;;4956710;28;20043;-70
2023/04/25 11:00:00;;;;;;;12.32;2.58;;;20.30;96.70;;;;;;4965789;28;20501;-70
2023/04/25 11:02:29;;;;;;;10.95;2.65;;;20.40;96.70;;;;;;4966204;28;20098;-70
2023/04/25 11:04:57;;;;;;;9.35;2.22;;;20.30;96.70;;;;;;4964850;28;20134;-70
2023/04/25 11:07:36;;;;;;;10.60;2.28;;;20.30;96.70;;;;;;4965137;28;20071;-70
2023/04/25 11:10:07;;;;;;;10.82;3.38;;;20.60;96.70;;;;;;4964384;28;20085;-70
2023/04/25 11:12:35;;;;;;;9.98;2.72;;;20.60;96.70;;;;;;4948521;28;20570;-70
2023/04/25 11:15:04;;;;;;;13.10;2.90;;;20.70;96.70;;;;;;4964627;28;20049;-70
2023/04/25 11:17:32;;;;;;;11.15;2.50;;;20.70;96.70;;;;;;4965127;28;20779;-70
2023/04/25 11:20:50;;;;;;;10.30;2.28;;;20.70;96.70;;;;;;4964303;28;20054;-70
2023/04/25 11:23:20;;;;;;;8.05;2.38;;;20.80;96.70;;;;;;4964499;28;20035;-70
2023/04/25 11:25:49;;;;;;;11.80;3.10;;;20.80;96.70;;;;;;4965140;28;20050;-70
2023/04/25 11:28:24;;;;;;;14.50;2.78;;;20.80;96.70;;;;;;4964176;28;20130;-70
2023/04/25 11:30:54;;;;;;;13.50;2.80;;;21.10;96.70;;;;;;4963117;28;20050;-70
2023/04/25 11:33:24;;;;;;;10.93;2.85;;;21.20;96.70;;;;;;4963524;28;20043;-70
2023/04/25 11:35:55;;;;;;;13.10;3.10;;;21.30;96.70;;;;;;4956606;28;20520;-70
2023/04/25 11:38:25;;;;;;;13.95;3.30;;;21.20;96.70;;;;;;4964876;28;20053;-70
2023/04/25 11:40:56;;;;;;;13.75;3.10;;;21.10;96.70;;;;;;4963362;28;20124;-70
2023/04/25 11:43:25;;;;;;;12.85;3.03;;;21.00;96.70;;;;;;4964519;28;20090;-71
2023/04/25 11:45:53;;;;;;;12.88;3.13;;;21.00;96.70;;;;;;4963999;28;20166;-70
2023/04/25 11:48:21;;;;;;;12.68;3.47;;;20.90;96.70;;;;;;4955596;28;20620;-70
2023/04/25 11:50:55;;;;;;;13.50;3.15;;;20.80;96.70;;;;;;4941915;28;20140;-71
2023/04/25 11:53:24;;;;;;;10.18;2.80;;;20.90;96.70;;;;;;4964474;28;20117;-70
2023/04/25 11:55:52;;;;;;;13.57;2.70;;;20.50;96.70;;;;;;4966809;28;20496;-70
2023/04/25 11:58:21;;;;;;;9.60;2.20;;;20.70;96.70;;;;;;4963017;28;20038;-70
2023/04/25 12:00:49;;;;;;;11.80;3.17;;;20.90;96.70;;;;;;4963387;28;20528;-70
2023/04/25 12:03:18;;;;;;;11.73;2.85;;;21.00;96.70;;;;;;4963583;28;20043;-70
2023/04/25 12:05:47;;;;;;;18.17;3.42;;;20.90;96.70;;;;;;4963586;28;20057;-70
2023/04/25 12:08:16;;;;;;;13.20;2.40;;;20.60;96.70;;;;;;4964573;28;20485;-70
2023/04/25 12:10:46;;;;;;;10.75;2.78;;;20.90;96.70;;;;;;4964614;28;20074;-70
2023/04/25 12:13:25;;;;;;;8.90;2.65;;;20.80;96.70;;;;;;4963153;28;20056;-70
2023/04/25 12:15:56;;;;;;;11.43;2.97;;;20.90;96.70;;;;;;4963507;28;20500;-70
2023/04/25 12:18:27;;;;;;;11.52;2.72;;;20.80;96.70;;;;;;4964587;28;20051;-70
2023/04/25 12:20:56;;;;;;;11.45;2.75;;;20.70;96.70;;;;;;4963439;28;20555;-70
2023/04/25 12:23:27;;;;;;;12.30;2.53;;;20.70;96.70;;;;;;4978156;28;20043;-70
2023/04/25 12:25:57;;;;;;;13.02;2.85;;;20.70;96.70;;;;;;4962797;28;20086;-70
2023/04/25 12:28:31;;;;;;;12.57;2.67;;;20.60;96.70;;;;;;4962833;28;20042;-69
2023/04/25 12:31:00;;;;;;;10.15;2.33;;;20.90;96.70;;;;;;4964257;28;20405;-70
2023/04/25 12:33:30;;;;;;;10.82;2.05;;;21.00;96.70;;;;;;4963270;28;20534;-70
2023/04/25 12:35:58;;;;;;;9.45;2.35;;;21.10;96.70;;;;;;4964217;28;20047;-70
2023/04/25 12:38:29;;;;;;;11.05;2.80;;;20.90;96.70;;;;;;4963810;28;20045;-70
2023/04/25 12:41:10;;;;;;;9.23;2.22;;;20.90;96.70;;;;;;4962462;28;20568;-70
2023/04/25 12:43:38;;;;;;;9.30;2.75;;;20.70;96.70;;;;;;4963300;28;20540;-70
2023/04/25 12:46:06;;;;;;;12.90;2.63;;;20.70;96.70;;;;;;4972453;28;20069;-70
2023/04/25 12:48:33;;;;;;;10.68;3.15;;;20.70;96.70;;;;;;4962802;28;20072;-70
2023/04/25 12:51:01;;;;;;;11.82;2.53;;;20.80;96.70;;;;;;4964004;28;20051;-69
2023/04/25 12:53:30;;;;;;;11.98;2.55;;;21.00;96.70;;;;;;4964326;28;20053;-70
2023/04/25 12:56:01;;;;;;;11.93;2.92;;;21.10;96.70;;;;;;4965928;28;20117;-70
2023/04/25 12:58:29;;;;;;;11.60;2.33;;;21.10;96.70;;;;;;4962240;28;20580;-70
2023/04/25 13:00:57;;;;;;;9.07;2.20;;;21.00;96.70;;;;;;4962489;28;20054;-70
2023/04/25 13:03:25;;;;;;;9.68;2.42;;;21.00;96.70;;;;;;4963793;28;20519;-70
2023/04/25 13:05:54;;;;;;;11.27;2.33;;;21.10;96.70;;;;;;4946660;28;20043;-70
2023/04/25 13:08:21;;;;;;;12.85;3.17;;;21.10;96.70;;;;;;4961797;28;20059;-70
2023/04/25 13:10:49;;;;;;;11.73;2.53;;;21.20;96.70;;;;;;4963727;28;20066;-70